Time;durP1;ratioP1;P1;durP2;ratioP2;P2;SDS_P1;SDS_P2;PMS_P1;PMS_P2;Temp;Humidity;BMP_temperature;BMP_pressure;BME280_temperature;BME280_humidity;BME280_pressure;Samples;Min_cycle;Max_cycle;Signal;HPM_P1;HPM_P2
2023/05/11 00:01:44;;;;;;;0.40;0.40;;;13.80;99.90;;;;;;4972036;28;20244;-66
2023/05/11 00:04:09;;;;;;;0.30;0.30;;;13.80;99.90;;;;;;4967384;28;20460;-66
2023/05/11 00:06:35;;;;;;;1.00;0.32;;;13.80;99.90;;;;;;4955088;28;20189;-66
2023/05/11 00:09:01;;;;;;;0.40;0.32;;;13.80;99.90;;;;;;4956963;28;20184;-67
2023/05/11 00:11:26;;;;;;;0.28;0.22;;;13.80;99.90;;;;;;4970387;28;20176;-64
2023/05/11 00:13:52;;;;;;;0.50;0.40;;;13.80;99.90;;;;;;4965853;28;20189;-67
2023/05/11 00:16:17;;;;;;;0.70;0.50;;;13.80;99.90;;;;;;4965477;28;20293;-65
2023/05/11 00:18:43;;;;;;;0.32;0.32;;;13.80;99.90;;;;;;4971641;28;20307;-66
2023/05/11 00:21:11;;;;;;;0.30;0.30;;;13.80;99.90;;;;;;4956344;28;20190;-66
2023/05/11 00:23:37;;;;;;;0.47;0.45;;;13.70;99.90;;;;;;4953845;28;20184;-66
2023/05/11 00:26:04;;;;;;;0.63;0.40;;;13.80;99.90;;;;;;4970380;28;20212;-67
2023/05/11 00:28:30;;;;;;;1.58;0.40;;;13.80;99.90;;;;;;4959731;28;20192;-66
2023/05/11 00:30:59;;;;;;;0.95;0.40;;;13.80;99.90;;;;;;4962814;28;20185;-67
2023/05/11 00:33:26;;;;;;;0.50;0.30;;;13.80;99.90;;;;;;4972984;28;20288;-66
2023/05/11 00:35:52;;;;;;;0.68;0.30;;;13.80;99.90;;;;;;4974207;28;20239;-67
2023/05/11 00:38:18;;;;;;;0.40;0.40;;;13.70;99.90;;;;;;4970974;28;20433;-65
2023/05/11 00:40:47;;;;;;;0.30;0.30;;;13.80;99.90;;;;;;4959180;28;20197;-66
2023/05/11 00:43:12;;;;;;;0.70;0.50;;;13.80;99.90;;;;;;4968571;28;20181;-65
2023/05/11 00:45:40;;;;;;;0.40;0.40;;;13.80;99.90;;;;;;4974714;28;20187;-67
2023/05/11 00:48:07;;;;;;;0.40;0.40;;;13.80;99.90;;;;;;4974957;28;20212;-67
2023/05/11 00:50:35;;;;;;;0.50;0.50;;;13.80;99.90;;;;;;4958923;29;20179;-67
2023/05/11 00:53:02;;;;;;;0.30;0.30;;;13.90;99.90;;;;;;4958683;29;20172;-65
2023/05/11 00:55:27;;;;;;;1.65;0.30;;;13.90;99.90;;;;;;4958856;29;20181;-66
2023/05/11 00:57:56;;;;;;;0.70;0.35;;;13.90;99.90;;;;;;4958772;29;20177;-66
2023/05/11 01:00:24;;;;;;;0.50;0.40;;;13.90;99.90;;;;;;4957948;28;20196;-66
2023/05/11 01:02:52;;;;;;;0.95;0.50;;;13.90;99.90;;;;;;4974647;28;20177;-67
2023/05/11 01:05:23;;;;;;;0.50;0.50;;;13.90;99.90;;;;;;4974871;28;20292;-67
2023/05/11 01:07:58;;;;;;;0.47;0.40;;;13.90;99.90;;;;;;4974106;28;20457;-66
2023/05/11 01:10:31;;;;;;;0.47;0.40;;;13.90;99.90;;;;;;4969423;28;20180;-67
2023/05/11 01:13:03;;;;;;;2.42;0.40;;;13.90;99.90;;;;;;4968876;28;20204;-67
2023/05/11 01:15:39;;;;;;;1.77;0.40;;;13.90;99.90;;;;;;4969716;28;20211;-67
2023/05/11 01:18:29;;;;;;;1.67;0.40;;;13.90;99.90;;;;;;4968779;28;20338;-65
2023/05/11 01:21:01;;;;;;;0.38;0.38;;;13.90;99.90;;;;;;4961448;28;20208;-65
2023/05/11 01:24:08;;;;;;;0.63;0.47;;;13.80;99.90;;;;;;4963884;28;20173;-63
2023/05/11 01:27:04;;;;;;;0.60;0.43;;;13.80;99.90;;;;;;4951851;29;20211;-67
2023/05/11 01:29:48;;;;;;;0.30;0.30;;;13.80;99.90;;;;;;4948201;28;20197;-65
2023/05/11 01:32:27;;;;;;;0.55;0.55;;;13.80;99.90;;;;;;4970171;28;20213;-62
2023/05/11 01:35:13;;;;;;;0.43;0.38;;;13.80;99.90;;;;;;4955893;29;20220;-63
2023/05/11 01:37:50;;;;;;;0.38;0.32;;;13.80;99.90;;;;;;4947725;28;20209;-64
2023/05/11 01:40:22;;;;;;;0.30;0.30;;;13.80;99.90;;;;;;4963104;28;20252;-65
2023/05/11 01:42:49;;;;;;;0.30;0.30;;;13.80;99.90;;;;;;4969171;28;20267;-65
2023/05/11 01:45:18;;;;;;;1.33;0.40;;;13.80;99.90;;;;;;4956101;29;20232;-66
2023/05/11 01:47:51;;;;;;;0.40;0.40;;;13.80;99.90;;;;;;4969925;28;20181;-65
2023/05/11 01:50:20;;;;;;;0.50;0.38;;;13.80;99.90;;;;;;4967372;28;20180;-61
2023/05/11 01:52:49;;;;;;;0.50;0.40;;;13.70;99.90;;;;;;4966929;28;20176;-64
2023/05/11 01:55:20;;;;;;;0.63;0.45;;;13.70;99.90;;;;;;4965683;28;20237;-66
2023/05/11 01:57:50;;;;;;;1.55;0.40;;;13.70;99.90;;;;;;4960751;28;20208;-66
2023/05/11 02:00:17;;;;;;;0.50;0.50;;;13.70;99.90;;;;;;4954995;29;20429;-65
2023/05/11 02:02:46;;;;;;;0.35;0.35;;;13.60;99.90;;;;;;4957406;28;20191;-64
2023/05/11 02:05:17;;;;;;;1.10;0.50;;;13.60;99.90;;;;;;4954593;29;20164;-65
2023/05/11 02:07:44;;;;;;;0.52;0.50;;;13.60;99.90;;;;;;4953303;29;20193;-63
2023/05/11 02:10:13;;;;;;;0.30;0.30;;;13.60;99.90;;;;;;4954039;28;20264;-65
2023/05/11 02:12:42;;;;;;;0.40;0.30;;;13.60;99.90;;;;;;4965173;28;20216;-65
2023/05/11 02:15:09;;;;;;;0.50;0.50;;;13.60;99.90;;;;;;4968704;28;20209;-65
2023/05/11 02:17:39;;;;;;;0.40;0.40;;;13.60;99.90;;;;;;4964182;28;20188;-66
2023/05/11 02:20:08;;;;;;;0.50;0.40;;;13.60;99.90;;;;;;4963675;28;20291;-60
2023/05/11 02:22:35;;;;;;;0.65;0.50;;;13.50;99.90;;;;;;4969618;28;20181;-66
2023/05/11 02:25:02;;;;;;;0.40;0.40;;;13.50;99.90;;;;;;4968548;28;20185;-66
2023/05/11 02:27:27;;;;;;;0.63;0.40;;;13.50;99.90;;;;;;4965149;28;20193;-65
2023/05/11 02:29:56;;;;;;;0.77;0.40;;;13.50;99.90;;;;;;4946688;29;20254;-66
2023/05/11 02:32:28;;;;;;;1.20;0.50;;;13.40;99.90;;;;;;4956664;29;20177;-65
2023/05/11 02:35:00;;;;;;;0.32;0.32;;;13.50;99.90;;;;;;4962041;28;20211;-65
2023/05/11 02:37:29;;;;;;;1.10;0.40;;;13.40;99.90;;;;;;4945584;28;20299;-65
2023/05/11 02:40:01;;;;;;;0.68;0.40;;;13.40;99.90;;;;;;4972484;28;20464;-65
2023/05/11 02:42:29;;;;;;;1.85;0.40;;;13.40;99.90;;;;;;4962473;28;20212;-65
2023/05/11 02:44:58;;;;;;;0.45;0.40;;;13.30;99.90;;;;;;4956478;28;20177;-65
2023/05/11 02:47:27;;;;;;;0.93;0.40;;;13.30;99.90;;;;;;4955699;29;20184;-65
2023/05/11 02:49:56;;;;;;;0.40;0.40;;;13.30;99.90;;;;;;4972345;28;20207;-63
2023/05/11 02:52:26;;;;;;;0.73;0.45;;;13.40;99.90;;;;;;4955762;28;20188;-66
2023/05/11 02:54:57;;;;;;;0.50;0.40;;;13.40;99.90;;;;;;4972335;28;20184;-66
2023/05/11 02:57:24;;;;;;;1.40;0.20;;;13.30;99.90;;;;;;4956005;28;20224;-66
2023/05/11 02:59:53;;;;;;;1.48;0.43;;;13.30;99.90;;;;;;4955655;29;20211;-65
2023/05/11 03:02:18;;;;;;;0.38;0.30;;;13.30;99.90;;;;;;4963222;28;20220;-66
2023/05/11 03:04:46;;;;;;;0.30;0.30;;;13.30;99.90;;;;;;4955772;28;20205;-67
2023/05/11 03:07:14;;;;;;;0.52;0.40;;;13.30;99.90;;;;;;4968664;28;20177;-66
2023/05/11 03:09:42;;;;;;;1.10;0.40;;;13.30;99.90;;;;;;4970256;28;20185;-67
2023/05/11 03:12:09;;;;;;;0.40;0.40;;;13.30;99.90;;;;;;4969727;28;20205;-66
2023/05/11 03:14:35;;;;;;;0.68;0.60;;;13.40;99.90;;;;;;4960690;28;20196;-64
2023/05/11 03:17:02;;;;;;;1.20;0.50;;;13.40;99.90;;;;;;4963582;28;20193;-66
2023/05/11 03:19:31;;;;;;;1.15;0.50;;;13.40;99.90;;;;;;4968732;28;20205;-66
2023/05/11 03:22:00;;;;;;;0.40;0.40;;;13.50;99.90;;;;;;4964942;28;20239;-66
2023/05/11 03:24:29;;;;;;;2.38;1.38;;;13.40;99.90;;;;;;4958203;28;20177;-66
2023/05/11 03:26:58;;;;;;;1.80;1.25;;;13.50;99.90;;;;;;4948447;29;20181;-66
2023/05/11 03:29:25;;;;;;;1.08;0.90;;;13.50;99.90;;;;;;4969593;28;20176;-66
2023/05/11 03:31:53;;;;;;;1.10;0.93;;;13.50;99.90;;;;;;4958338;28;20384;-65
2023/05/11 03:34:21;;;;;;;0.70;0.68;;;13.50;99.90;;;;;;4953543;28;20255;-64
2023/05/11 03:36:51;;;;;;;2.95;0.80;;;13.50;99.90;;;;;;4949319;29;20212;-66
2023/05/11 03:39:19;;;;;;;0.57;0.52;;;13.50;99.90;;;;;;4946921;29;20262;-60
2023/05/11 03:41:48;;;;;;;0.50;0.40;;;13.50;99.90;;;;;;4962262;28;20267;-67
2023/05/11 03:44:19;;;;;;;0.70;0.50;;;13.50;99.90;;;;;;4958716;28;20180;-63
2023/05/11 03:46:47;;;;;;;0.30;0.30;;;13.50;99.90;;;;;;4950865;28;20202;-66
2023/05/11 03:49:15;;;;;;;1.05;0.90;;;13.50;99.90;;;;;;4956808;28;20200;-66
2023/05/11 03:51:44;;;;;;;1.30;0.80;;;13.50;99.90;;;;;;4954103;28;20195;-66
2023/05/11 03:54:12;;;;;;;1.00;0.52;;;13.50;99.90;;;;;;4952080;29;20472;-66
2023/05/11 03:56:39;;;;;;;0.80;0.60;;;13.50;99.90;;;;;;4952309;28;20185;-63
2023/05/11 03:59:08;;;;;;;0.75;0.60;;;13.40;99.90;;;;;;4961134;28;20209;-66
2023/05/11 04:01:36;;;;;;;0.70;0.50;;;13.50;99.90;;;;;;4950491;28;20299;-66
2023/05/11 04:04:02;;;;;;;0.60;0.45;;;13.40;99.90;;;;;;4949684;29;20192;-63
2023/05/11 04:06:28;;;;;;;0.80;0.60;;;13.40;99.90;;;;;;4963573;28;20173;-66
2023/05/11 04:08:53;;;;;;;0.70;0.50;;;13.40;99.90;;;;;;4956820;28;20468;-65
2023/05/11 04:11:20;;;;;;;0.35;0.35;;;13.40;99.90;;;;;;4950965;28;20177;-63
2023/05/11 04:13:46;;;;;;;1.75;0.70;;;13.30;99.90;;;;;;4950692;29;20185;-66
2023/05/11 04:16:14;;;;;;;0.70;0.60;;;13.20;99.90;;;;;;4955130;28;20228;-64
2023/05/11 04:18:39;;;;;;;1.27;0.75;;;13.30;99.90;;;;;;4954901;29;20305;-66
2023/05/11 04:21:08;;;;;;;0.60;0.60;;;13.20;99.90;;;;;;4970226;28;20291;-66
2023/05/11 04:23:38;;;;;;;5.35;0.90;;;13.30;99.90;;;;;;4968796;28;20287;-67
2023/05/11 04:26:08;;;;;;;1.25;0.57;;;13.30;99.90;;;;;;4969895;28;20191;-66
2023/05/11 04:28:34;;;;;;;0.88;0.60;;;13.20;99.90;;;;;;4975698;28;20223;-66
2023/05/11 04:31:02;;;;;;;1.48;0.77;;;13.30;99.90;;;;;;4982572;28;20188;-65
2023/05/11 04:33:30;;;;;;;0.50;0.50;;;13.30;99.90;;;;;;4970781;28;20178;-66
2023/05/11 04:35:57;;;;;;;1.73;0.73;;;13.30;99.90;;;;;;4953171;28;20196;-66
2023/05/11 04:38:23;;;;;;;0.63;0.60;;;13.30;99.90;;;;;;4961836;28;20181;-67
2023/05/11 04:40:49;;;;;;;1.00;0.70;;;13.20;99.90;;;;;;4973620;28;20255;-67
2023/05/11 04:43:15;;;;;;;1.23;0.75;;;13.20;99.90;;;;;;4953219;28;20209;-67
2023/05/11 04:45:45;;;;;;;0.70;0.65;;;13.20;99.90;;;;;;4957296;29;20188;-66
2023/05/11 04:48:11;;;;;;;1.73;0.70;;;13.20;99.90;;;;;;4968177;28;20185;-65
2023/05/11 04:50:37;;;;;;;1.05;0.85;;;13.20;99.90;;;;;;4952586;28;20203;-67
2023/05/11 04:53:02;;;;;;;1.40;1.10;;;13.20;99.90;;;;;;4963487;28;20236;-66
2023/05/11 04:55:28;;;;;;;1.15;0.90;;;13.20;99.90;;;;;;4959037;28;20177;-67
2023/05/11 04:57:53;;;;;;;3.13;1.10;;;13.30;99.90;;;;;;4958170;28;20188;-63
2023/05/11 05:00:20;;;;;;;1.50;1.02;;;13.20;99.90;;;;;;4971201;28;20196;-67
2023/05/11 05:02:45;;;;;;;2.55;1.45;;;13.20;99.90;;;;;;4955147;29;20177;-66
2023/05/11 05:05:11;;;;;;;1.48;1.27;;;13.20;99.90;;;;;;4956068;28;20184;-65
2023/05/11 05:07:36;;;;;;;1.50;1.20;;;13.30;99.90;;;;;;4955396;29;20238;-67
2023/05/11 05:10:05;;;;;;;2.20;1.52;;;13.30;99.90;;;;;;4955050;29;20188;-67
2023/05/11 05:12:31;;;;;;;1.77;1.40;;;13.30;99.90;;;;;;4955559;29;20192;-66
2023/05/11 05:14:56;;;;;;;2.28;1.50;;;13.20;99.90;;;;;;4954146;28;20251;-66
2023/05/11 05:17:22;;;;;;;2.22;1.35;;;13.30;99.90;;;;;;4967575;28;20197;-63
2023/05/11 05:19:50;;;;;;;1.77;1.50;;;13.30;99.90;;;;;;4960415;28;20200;-71
2023/05/11 05:22:15;;;;;;;2.47;1.50;;;13.20;99.90;;;;;;4954533;29;20188;-70
2023/05/11 05:24:43;;;;;;;3.15;1.67;;;13.30;99.90;;;;;;4967163;28;20251;-67
2023/05/11 05:27:09;;;;;;;1.98;1.67;;;13.40;99.90;;;;;;4968184;28;20177;-70
2023/05/11 05:29:37;;;;;;;3.65;1.67;;;13.40;99.90;;;;;;4956772;28;20201;-71
2023/05/11 05:32:02;;;;;;;4.80;1.70;;;13.40;99.90;;;;;;4953044;29;20181;-68
2023/05/11 05:34:28;;;;;;;2.80;1.65;;;13.50;99.90;;;;;;4967727;28;20200;-72
2023/05/11 05:36:53;;;;;;;3.03;1.67;;;13.50;99.90;;;;;;4969004;28;20187;-69
2023/05/11 05:39:21;;;;;;;3.17;1.63;;;13.50;99.90;;;;;;4957841;28;20208;-64
2023/05/11 05:41:52;;;;;;;2.72;1.80;;;13.60;99.90;;;;;;4968071;28;20253;-67
2023/05/11 05:44:21;;;;;;;2.90;1.95;;;13.60;99.90;;;;;;4962633;28;20244;-67
2023/05/11 05:46:49;;;;;;;2.05;1.75;;;13.60;99.90;;;;;;4960596;28;20248;-67
2023/05/11 05:49:15;;;;;;;3.20;2.20;;;13.70;99.90;;;;;;4960286;28;20205;-67
2023/05/11 05:51:40;;;;;;;3.42;2.47;;;13.70;99.90;;;;;;4969820;28;20191;-67
2023/05/11 05:54:06;;;;;;;3.55;2.00;;;13.70;99.90;;;;;;4966646;28;20292;-66
2023/05/11 05:56:34;;;;;;;3.53;2.38;;;13.80;99.90;;;;;;4969132;28;20185;-66
2023/05/11 05:59:02;;;;;;;3.90;2.70;;;13.70;99.90;;;;;;4941571;29;20204;-66
2023/05/11 06:01:28;;;;;;;4.05;2.38;;;13.80;99.90;;;;;;4969810;28;20216;-65
2023/05/11 06:03:54;;;;;;;3.70;2.42;;;13.80;99.90;;;;;;4948771;29;20275;-65
2023/05/11 06:06:20;;;;;;;3.67;2.63;;;13.90;99.90;;;;;;4971894;28;20169;-66
2023/05/11 06:08:45;;;;;;;3.78;2.53;;;13.90;99.90;;;;;;4955421;29;20215;-65
2023/05/11 06:11:11;;;;;;;3.90;2.92;;;14.00;99.90;;;;;;4972778;28;20172;-66
2023/05/11 06:13:39;;;;;;;4.90;2.75;;;14.00;99.90;;;;;;4945303;28;20180;-65
2023/05/11 06:16:04;;;;;;;4.38;3.08;;;14.00;99.90;;;;;;4972356;28;20211;-66
2023/05/11 06:18:30;;;;;;;4.93;3.17;;;14.00;99.90;;;;;;4952815;28;20197;-66
2023/05/11 06:20:56;;;;;;;5.30;3.25;;;14.10;99.90;;;;;;4954127;28;20212;-66
2023/05/11 06:23:21;;;;;;;4.78;3.22;;;14.10;99.90;;;;;;4966138;28;20206;-66
2023/05/11 06:25:47;;;;;;;4.97;3.40;;;14.20;99.90;;;;;;4970843;28;20217;-65
2023/05/11 06:28:13;;;;;;;6.60;3.60;;;14.20;99.90;;;;;;4956797;28;20193;-66
2023/05/11 06:30:38;;;;;;;4.93;3.60;;;14.30;99.90;;;;;;4970462;28;20219;-65
2023/05/11 06:33:04;;;;;;;6.18;3.83;;;14.30;99.90;;;;;;4972994;28;20176;-66
2023/05/11 06:35:29;;;;;;;6.53;3.88;;;14.30;99.90;;;;;;4972254;28;20264;-66
2023/05/11 06:37:58;;;;;;;7.57;4.40;;;14.40;99.90;;;;;;4972742;28;20240;-65
2023/05/11 06:40:24;;;;;;;6.13;3.70;;;14.40;99.90;;;;;;4961248;28;20212;-66
2023/05/11 06:42:49;;;;;;;5.63;3.78;;;14.40;99.90;;;;;;4965878;28;20216;-66
2023/05/11 06:45:15;;;;;;;4.68;3.83;;;14.40;99.90;;;;;;4964256;28;20184;-66
2023/05/11 06:47:43;;;;;;;6.43;4.05;;;14.40;99.90;;;;;;4972979;28;20454;-67
2023/05/11 06:50:09;;;;;;;10.52;4.03;;;14.50;99.90;;;;;;4972786;28;20201;-66
2023/05/11 06:52:35;;;;;;;5.88;3.72;;;14.50;99.90;;;;;;4969340;28;20185;-66
2023/05/11 06:55:03;;;;;;;6.10;3.90;;;14.60;99.90;;;;;;4938604;29;20189;-66
2023/05/11 06:57:29;;;;;;;6.85;4.50;;;14.60;99.90;;;;;;4958627;28;20189;-67
2023/05/11 06:59:54;;;;;;;6.22;4.28;;;14.60;99.90;;;;;;4971858;28;20207;-66
2023/05/11 07:02:22;;;;;;;7.15;4.65;;;14.70;99.90;;;;;;4971048;28;20165;-66
2023/05/11 07:04:50;;;;;;;6.47;4.40;;;14.70;99.90;;;;;;4962097;28;20260;-65
2023/05/11 07:07:16;;;;;;;7.55;5.07;;;14.70;99.90;;;;;;4954992;28;20181;-68
2023/05/11 07:09:42;;;;;;;6.60;4.90;;;14.70;99.90;;;;;;4959856;28;20219;-66
2023/05/11 07:12:07;;;;;;;8.43;4.82;;;14.70;99.90;;;;;;4966753;28;20264;-66
2023/05/11 07:14:33;;;;;;;8.20;4.78;;;14.80;99.90;;;;;;4967978;28;20177;-66
2023/05/11 07:16:58;;;;;;;7.95;6.10;;;14.80;99.90;;;;;;4954254;29;20196;-65
2023/05/11 07:19:26;;;;;;;8.75;5.85;;;14.80;99.90;;;;;;4957103;28;20212;-66
2023/05/11 07:21:55;;;;;;;7.82;5.60;;;14.80;99.90;;;;;;4964852;28;20173;-66
2023/05/11 07:24:20;;;;;;;8.20;5.50;;;14.80;99.90;;;;;;4968616;28;20233;-66
2023/05/11 07:26:47;;;;;;;6.95;5.38;;;14.80;99.90;;;;;;4951584;28;20223;-66
2023/05/11 07:29:13;;;;;;;10.23;6.05;;;14.80;99.90;;;;;;4968639;28;20181;-66
2023/05/11 07:31:39;;;;;;;8.40;5.80;;;14.80;99.90;;;;;;4967070;28;20208;-65
2023/05/11 07:34:09;;;;;;;8.30;6.20;;;14.80;99.90;;;;;;4962912;28;20184;-66
2023/05/11 07:36:35;;;;;;;7.65;6.22;;;14.80;99.90;;;;;;4955922;28;20417;-66
2023/05/11 07:39:01;;;;;;;10.18;6.10;;;14.90;99.90;;;;;;4961401;28;20181;-66
2023/05/11 07:41:27;;;;;;;9.15;5.72;;;14.90;99.90;;;;;;4971071;28;20185;-66
2023/05/11 07:43:53;;;;;;;7.70;5.53;;;14.90;99.90;;;;;;4958462;28;20176;-65
2023/05/11 07:46:21;;;;;;;9.20;5.88;;;15.00;99.90;;;;;;4956626;28;20345;-64
2023/05/11 07:48:49;;;;;;;8.25;6.28;;;15.00;99.90;;;;;;4970917;28;20181;-66
2023/05/11 07:51:15;;;;;;;10.10;6.35;;;15.10;99.90;;;;;;4970281;28;20216;-65
2023/05/11 07:53:40;;;;;;;9.38;6.50;;;15.10;99.90;;;;;;4952681;29;20188;-66
2023/05/11 07:56:09;;;;;;;7.90;6.38;;;15.20;99.90;;;;;;4971626;28;20181;-65
2023/05/11 07:58:37;;;;;;;9.82;6.32;;;15.30;99.90;;;;;;4940802;29;20213;-65
2023/05/11 08:01:03;;;;;;;9.07;6.97;;;15.30;99.90;;;;;;4968387;28;20244;-65
2023/05/11 08:03:29;;;;;;;9.60;7.28;;;15.40;99.90;;;;;;4949235;29;20201;-65
2023/05/11 08:05:57;;;;;;;9.85;7.45;;;15.50;99.90;;;;;;4956137;28;20197;-65
2023/05/11 08:08:23;;;;;;;11.52;8.25;;;15.60;99.90;;;;;;4960218;28;20191;-65
2023/05/11 08:10:49;;;;;;;10.27;8.65;;;15.70;99.90;;;;;;4956283;29;20185;-65
2023/05/11 08:13:15;;;;;;;11.38;8.60;;;15.90;99.90;;;;;;4973779;28;20267;-65
2023/05/11 08:15:42;;;;;;;11.48;9.32;;;16.00;99.90;;;;;;4954361;29;20245;-65
2023/05/11 08:18:08;;;;;;;11.65;8.15;;;16.00;99.90;;;;;;4967995;28;20287;-65
2023/05/11 08:20:34;;;;;;;10.93;7.63;;;16.10;99.90;;;;;;4972072;28;20268;-64
2023/05/11 08:23:00;;;;;;;10.55;8.50;;;16.20;99.90;;;;;;4972548;28;20200;-65
2023/05/11 08:25:25;;;;;;;12.68;8.57;;;16.20;99.90;;;;;;4946639;29;20205;-65
2023/05/11 08:27:51;;;;;;;11.63;8.65;;;16.30;99.90;;;;;;4956797;29;20181;-65
2023/05/11 08:30:19;;;;;;;9.90;8.00;;;16.40;99.90;;;;;;4975227;28;20177;-65
2023/05/11 08:32:45;;;;;;;10.48;8.63;;;16.50;99.90;;;;;;4975164;28;20201;-66
2023/05/11 08:35:14;;;;;;;9.63;8.15;;;16.60;99.90;;;;;;4975443;28;20173;-65
2023/05/11 08:37:39;;;;;;;11.95;9.30;;;16.70;99.90;;;;;;4968053;28;20195;-65
2023/05/11 08:40:05;;;;;;;9.73;8.45;;;16.80;99.90;;;;;;4951676;28;20213;-66
2023/05/11 08:42:35;;;;;;;9.63;8.10;;;16.90;99.90;;;;;;4939936;29;20174;-66
2023/05/11 08:45:02;;;;;;;9.38;7.80;;;16.90;99.90;;;;;;4947832;29;20173;-65
2023/05/11 08:47:32;;;;;;;10.73;8.13;;;17.00;99.90;;;;;;4974885;28;20212;-66
2023/05/11 08:50:02;;;;;;;10.25;7.93;;;17.10;99.90;;;;;;4974709;28;20176;-66
2023/05/11 08:52:35;;;;;;;9.63;8.13;;;17.20;99.90;;;;;;4974900;28;20180;-65
2023/05/11 08:55:01;;;;;;;9.52;7.53;;;17.30;99.90;;;;;;4974633;28;20176;-66
2023/05/11 08:57:31;;;;;;;9.95;7.22;;;17.30;99.90;;;;;;4955921;28;20199;-66
2023/05/11 08:59:58;;;;;;;10.60;7.70;;;17.30;99.90;;;;;;4974060;28;20208;-65
2023/05/11 09:02:25;;;;;;;9.63;7.63;;;17.40;99.90;;;;;;4971933;28;20188;-66
2023/05/11 09:04:53;;;;;;;11.27;8.27;;;17.50;99.90;;;;;;4943402;29;20237;-66
2023/05/11 09:07:23;;;;;;;10.90;8.18;;;17.50;99.90;;;;;;4939073;29;20205;-66
2023/05/11 09:09:49;;;;;;;9.68;8.07;;;17.60;99.90;;;;;;4963586;28;20209;-66
2023/05/11 09:12:15;;;;;;;9.88;8.07;;;17.60;99.90;;;;;;4945087;29;20208;-66
2023/05/11 09:14:41;;;;;;;11.23;7.93;;;17.70;99.90;;;;;;4959162;28;20212;-66
2023/05/11 09:17:07;;;;;;;10.68;8.30;;;17.80;99.90;;;;;;4972935;28;20267;-66
2023/05/11 09:19:35;;;;;;;9.93;8.30;;;17.80;99.90;;;;;;4973535;28;20204;-66
2023/05/11 09:22:04;;;;;;;10.45;8.45;;;17.90;99.90;;;;;;4959161;28;20192;-66
2023/05/11 09:24:29;;;;;;;9.38;7.57;;;18.00;99.90;;;;;;4958457;28;20177;-66
2023/05/11 09:27:08;;;;;;;8.35;7.30;;;18.10;99.90;;;;;;4955535;29;20188;-66
2023/05/11 09:29:34;;;;;;;8.93;7.80;;;18.20;99.90;;;;;;4973048;28;20352;-66
2023/05/11 09:31:59;;;;;;;9.38;8.43;;;18.30;99.90;;;;;;4971630;28;20196;-66
2023/05/11 09:34:25;;;;;;;9.27;8.27;;;18.40;99.90;;;;;;4958051;28;20210;-66
2023/05/11 09:36:53;;;;;;;9.35;7.60;;;18.50;99.90;;;;;;4956248;28;20188;-65
2023/05/11 09:39:35;;;;;;;10.32;9.02;;;18.50;99.90;;;;;;4946273;29;20191;-65
2023/05/11 09:42:12;;;;;;;8.85;7.95;;;18.60;99.90;;;;;;4951575;28;20205;-66
2023/05/11 09:44:40;;;;;;;9.65;8.68;;;18.60;99.90;;;;;;4969377;28;20280;-65
2023/05/11 09:47:37;;;;;;;9.93;8.25;;;18.60;99.90;;;;;;4968288;28;20176;-66
2023/05/11 09:50:16;;;;;;;9.02;7.90;;;18.60;99.90;;;;;;4948844;29;20193;-66
2023/05/11 09:52:51;;;;;;;10.43;7.95;;;18.60;99.90;;;;;;4963796;28;20193;-66
2023/05/11 09:55:17;;;;;;;8.98;7.57;;;18.60;99.90;;;;;;4949606;29;20200;-67
2023/05/11 09:57:53;;;;;;;10.07;8.52;;;18.70;99.90;;;;;;4965891;28;20269;-67
2023/05/11 10:00:21;;;;;;;9.13;8.18;;;18.70;99.90;;;;;;4968230;28;20212;-67
2023/05/11 10:03:02;;;;;;;10.13;8.90;;;18.80;99.90;;;;;;4964731;28;20201;-66
2023/05/11 10:05:30;;;;;;;9.27;8.27;;;18.90;99.90;;;;;;4966309;28;20200;-66
2023/05/11 10:08:00;;;;;;;9.43;8.48;;;19.00;99.90;;;;;;4972211;28;20177;-67
2023/05/11 10:10:30;;;;;;;10.50;9.23;;;19.10;99.90;;;;;;4968037;28;20187;-66
2023/05/11 10:13:04;;;;;;;10.40;9.30;;;19.20;99.90;;;;;;4969036;28;20172;-66
2023/05/11 10:15:34;;;;;;;9.85;8.82;;;19.30;99.90;;;;;;4969346;28;20260;-66
2023/05/11 10:18:02;;;;;;;9.60;8.70;;;19.30;99.90;;;;;;4937886;29;20207;-66
2023/05/11 10:20:30;;;;;;;9.85;8.80;;;19.30;99.90;;;;;;4954895;29;20344;-66
2023/05/11 10:22:56;;;;;;;9.45;8.40;;;19.30;99.90;;;;;;4979002;28;20205;-66
2023/05/11 10:25:23;;;;;;;8.30;7.50;;;19.40;99.90;;;;;;4959156;28;20185;-66
2023/05/11 10:27:52;;;;;;;8.10;7.38;;;19.50;99.90;;;;;;4972649;28;20188;-66
2023/05/11 10:30:20;;;;;;;9.65;7.88;;;19.60;99.90;;;;;;4972777;28;20177;-66
2023/05/11 10:32:46;;;;;;;8.77;7.88;;;19.80;99.90;;;;;;4956471;28;20529;-67
2023/05/11 10:35:12;;;;;;;8.18;7.38;;;19.90;99.90;;;;;;4972614;28;20280;-67
2023/05/11 10:37:39;;;;;;;7.57;6.85;;;20.10;99.90;;;;;;4972636;28;20268;-66
2023/05/11 10:40:06;;;;;;;8.38;7.57;;;20.10;99.90;;;;;;4969152;28;20209;-66
2023/05/11 10:42:50;;;;;;;7.25;6.55;;;20.10;99.90;;;;;;4953421;29;20204;-66
2023/05/11 10:45:50;;;;;;;7.70;6.90;;;20.20;99.90;;;;;;4981340;28;20171;-67
2023/05/11 10:48:35;;;;;;;7.45;6.65;;;20.30;99.90;;;;;;4930513;28;20188;-66
2023/05/11 10:51:40;;;;;;;6.88;6.13;;;20.40;99.90;;;;;;4956816;28;20207;-66
2023/05/11 10:54:33;;;;;;;6.93;6.22;;;20.50;99.90;;;;;;4937761;29;20184;-66
2023/05/11 10:57:14;;;;;;;6.95;6.25;;;20.60;99.90;;;;;;4953430;28;20209;-67
2023/05/11 11:00:09;;;;;;;9.05;6.60;;;20.70;99.90;;;;;;4948301;29;20222;-66
2023/05/11 11:02:36;;;;;;;9.13;6.90;;;20.70;99.90;;;;;;4971812;28;20180;-66
2023/05/11 11:05:06;;;;;;;6.75;6.00;;;20.60;99.90;;;;;;4972237;28;20169;-66
2023/05/11 11:07:58;;;;;;;10.60;7.22;;;20.50;99.90;;;;;;4952317;29;20173;-66
2023/05/11 11:10:33;;;;;;;9.80;7.82;;;20.30;99.90;;;;;;4949360;29;20278;-66
2023/05/11 11:13:06;;;;;;;8.48;6.90;;;20.10;99.90;;;;;;4969056;28;20176;-66
2023/05/11 11:15:57;;;;;;;11.23;8.65;;;19.80;99.90;;;;;;4956582;28;20185;-67
2023/05/11 11:18:25;;;;;;;10.98;7.70;;;19.60;99.90;;;;;;4971447;28;20197;-67
2023/05/11 11:20:53;;;;;;;9.98;7.72;;;19.40;99.90;;;;;;4971628;28;20227;-66
2023/05/11 11:23:43;;;;;;;9.88;7.55;;;19.30;99.90;;;;;;4969695;28;20204;-66
2023/05/11 11:26:11;;;;;;;10.05;7.82;;;19.10;99.90;;;;;;4962011;28;20177;-67
2023/05/11 11:29:00;;;;;;;15.18;8.27;;;19.00;99.90;;;;;;4960248;28;20165;-67
2023/05/11 11:31:33;;;;;;;9.07;6.80;;;18.90;99.90;;;;;;4957594;28;20212;-66
2023/05/11 11:34:27;;;;;;;9.05;6.90;;;18.80;99.90;;;;;;4955551;28;20236;-67
2023/05/11 11:37:02;;;;;;;8.38;6.97;;;18.70;99.90;;;;;;4950188;28;20173;-67
2023/05/11 11:39:45;;;;;;;7.93;6.53;;;18.70;99.90;;;;;;4969351;28;20236;-67
2023/05/11 11:42:10;;;;;;;9.52;7.20;;;18.60;99.90;;;;;;4961222;28;20176;-67
2023/05/11 11:44:37;;;;;;;9.75;7.15;;;18.60;99.90;;;;;;4975476;28;20263;-67
2023/05/11 11:47:21;;;;;;;7.43;6.57;;;18.70;99.90;;;;;;4958966;29;20177;-66
2023/05/11 11:49:54;;;;;;;7.82;6.75;;;18.70;99.90;;;;;;4956760;29;20173;-66
2023/05/11 11:52:26;;;;;;;8.43;6.78;;;18.90;99.90;;;;;;4969208;28;20205;-67
2023/05/11 11:54:58;;;;;;;8.93;6.80;;;19.00;99.90;;;;;;4944333;29;20274;-67
2023/05/11 11:57:33;;;;;;;7.90;6.65;;;19.00;99.90;;;;;;4957593;28;20195;-67
2023/05/11 12:00:06;;;;;;;8.23;6.47;;;19.30;99.90;;;;;;4958463;29;20218;-66
2023/05/11 12:02:34;;;;;;;9.43;6.75;;;19.40;99.90;;;;;;4946728;28;20177;-67
2023/05/11 12:05:11;;;;;;;8.15;6.88;;;19.50;99.90;;;;;;4955794;28;20201;-67
2023/05/11 12:07:45;;;;;;;9.80;7.20;;;19.60;99.90;;;;;;4945413;29;20271;-67
2023/05/11 12:10:13;;;;;;;9.45;7.85;;;19.80;99.90;;;;;;4954433;28;20243;-68
2023/05/11 12:12:39;;;;;;;9.70;7.57;;;20.00;99.90;;;;;;4971275;28;20196;-67
2023/05/11 12:15:06;;;;;;;8.45;6.93;;;20.30;99.90;;;;;;4957279;28;20188;-67
2023/05/11 12:17:36;;;;;;;9.20;7.18;;;20.50;99.90;;;;;;4971565;28;20196;-67
2023/05/11 12:20:16;;;;;;;7.40;6.65;;;20.60;99.90;;;;;;4956657;28;20216;-68
2023/05/11 12:22:47;;;;;;;9.65;7.80;;;20.80;99.90;;;;;;4967720;28;21473;-68
2023/05/11 12:25:16;;;;;;;7.47;6.68;;;20.90;99.90;;;;;;4956007;28;20196;-67
2023/05/11 12:28:02;;;;;;;9.35;7.20;;;20.90;99.90;;;;;;4957076;29;20181;-67
2023/05/11 12:30:32;;;;;;;8.90;7.25;;;21.00;99.90;;;;;;4946170;29;20237;-67
2023/05/11 12:32:59;;;;;;;7.25;6.47;;;21.00;99.90;;;;;;4965444;28;20181;-67
2023/05/11 12:35:28;;;;;;;7.50;6.68;;;21.00;99.90;;;;;;4957410;29;20224;-67
2023/05/11 12:37:55;;;;;;;9.57;7.15;;;21.10;99.90;;;;;;4970227;28;20197;-67
2023/05/11 12:40:23;;;;;;;9.32;8.15;;;21.10;99.90;;;;;;4963055;28;20263;-66
2023/05/11 12:42:58;;;;;;;10.50;7.63;;;21.20;99.90;;;;;;4973699;28;20271;-67
2023/05/11 12:45:28;;;;;;;9.73;8.25;;;21.20;99.90;;;;;;4973128;28;20187;-66
2023/05/11 12:47:55;;;;;;;7.18;6.45;;;21.20;99.90;;;;;;4969220;28;20254;-67
2023/05/11 12:50:26;;;;;;;9.07;7.13;;;21.30;99.90;;;;;;4938597;29;20268;-67
2023/05/11 12:53:10;;;;;;;8.68;6.93;;;21.30;99.90;;;;;;4950310;29;20216;-67
2023/05/11 12:55:38;;;;;;;7.68;6.07;;;21.40;99.90;;;;;;4956945;28;20180;-67
2023/05/11 12:58:07;;;;;;;9.10;6.80;;;21.40;99.90;;;;;;4973937;28;20169;-67